MMZC

Details ICAO MMZC (ZCL)
Name GENERAL LEOBARDO C RUIZ INTL
Region Mexico
Timezone America/Mexico_City (UTC-5.0)
Plans Departing 8
Arriving 13
Stats Elevation 7,141 ft / 2,177 m (AMSL)
Location 22.897924° -102.684945°
Runways 2
Magnetic Variation 6.027° E
Sunrise 2018-05-22 12:08:45 UTC / 2018-05-22 07:08:45 Local
Sunset 2018-05-23 01:28:58 UTC / 2018-05-22 20:28:58 Local
Advertisement - Login to hide

Runways

ID Width Length Bearing (true) Bearing (mag) Surface Threshold Offset Overrun Length
02 148 ft / 45 m 9,876 ft / 3,010 m 27.90° 21.87° Asphalt 0 ft / 0 m 210 ft / 64 m
08 98 ft / 30 m 3,260 ft / 994 m 87.86° 81.83° Asphalt 0 ft / 0 m 0 ft / 0 m
20 148 ft / 45 m 9,876 ft / 3,010 m 207.91° 201.88° Asphalt 0 ft / 0 m 198 ft / 60 m
26 98 ft / 30 m 3,260 ft / 994 m 267.86° 261.83° Asphalt 0 ft / 0 m 0 ft / 0 m

Map

Weather


0- 5 10 15 20 25 30 35+ Temperature / ° C

Clouds and Precipitation
Forecast for 2018-05-23 06:00 UTC. Updated 6 minutes ago

Ground ~20,000 ft ~40,000 ft Winds

METAR

MMZC 230449Z 21010KT 10SM SKC 21/M10 A3019

TAF

TAF MMZC 222306Z 2300/2406 31010KT P6SM SKC TX29/2321Z TN00/2312Z BECMG 2307/2308 19005KT FM231800 22010KT P6SM BKN250 BECMG 2402/2403 19005KT

Frequencies

Tower 118.00 MHz ZACATECAS TWR
Warning: Do not use this data for real-world aviation or navigation. No guarantee of current accuracy is given.